Comares, Spain

7:03 AM CEST on September 04, 2015 (GMT +0200)
Valle Frontilla | | Change Station
CLOSE
Current Station
Personal Weather Station
Location: Moclinejo, ANDALUSIA
Elevation: 1982 ft
Nearby Weather Stations

Elev 1982 ft 36.79 °N, 4.26 °W | Updated 11 seconds ago

Scattered Clouds
Scattered Clouds
68.5 °F
Feels Like 68.5 °F
N
4.0
Wind Variable Wind from West
Gusts 4.0 mph

Today
High -- | Low -- °F
--% Chance of Precip.
Yesterday
High -- | Low -- °F
Precip. -- in
7:50 AM 8:41 PM
Waning Gibbous, 63% visible
Pressure 29.98 in
Visibility 6.2 miles
Clouds Few 1500 ft
Scattered Clouds 25000 ft
Dew Point 46 °F
Humidity 45%
Rainfall 0.00 in
Snow Depth Not available.
UV 0 out of 12
Pollen Not available.
Air Quality Not available.
Flu Activity Not available.
METAR LXGB 040450Z 25009KT 9999 FEW015 SCT250 19/15 Q1015
Pressure 29.98 in
Visibility 6.2 miles
Clouds Few 1500 ft
Scattered Clouds 25000 ft
Dew Point 46 °F
Humidity 45%
Rainfall 0.00 in
Snow Depth Not available.
UV 0 out of 12
Pollen Not available.
Air Quality Not available.
Flu Activity Not available.
METAR LXGB 040450Z 25009KT 9999 FEW015 SCT250 19/15 Q1015

10-Day Weather Forecast

×

Almanac

Astronomy

Sep. 04, 2015 Rise Set
Actual Time
Civil Twilight
Nautical Twilight
Astronomical Twilight
Moon
Length of Visible Light
Length of Day
Tomorrow will be .
, % of the Moon is Illuminated

Today's Extremes

Country Highs Country Lows

Community

WunderPhotos

Upload Photos

1,852,129 photos uploaded!

WunderBlogs® & News

Nearby

Air Quality

  Air Quality AQ Index Pollutant
Not available.

Snow Depth

Station Depth Elevation

Earthquake Activity

City Distance Mag. Time & Date
Minimum magnitude displayed is 2.5.

Coastal Water Temperatures

Place Temperature

Stations

Nearby Weather Stations

Station Location Temp. Windchill Dew Point Humidity Wind Precip. Elev Updated Type